createdAt,value
2018-06-28T00:00:29.041Z,4.87
2018-06-28T00:02:58.433Z,5.17
2018-06-28T00:05:28.314Z,5.70
2018-06-28T00:07:58.623Z,5.53
2018-06-28T00:10:28.874Z,4.90
2018-06-28T00:12:58.294Z,5.20
2018-06-28T00:15:28.451Z,4.93
2018-06-28T00:17:57.104Z,5.80
2018-06-28T00:20:26.095Z,5.50
2018-06-28T00:22:55.346Z,5.33
2018-06-28T00:25:24.179Z,4.70
2018-06-28T00:27:52.416Z,4.73
2018-06-28T00:30:21.905Z,4.50
2018-06-28T00:32:51.027Z,5.40
2018-06-28T00:35:19.123Z,4.70
2018-06-28T00:37:48.051Z,4.90
2018-06-28T00:40:17.181Z,4.33
2018-06-28T00:42:46.410Z,5.07
2018-06-28T00:45:15.620Z,5.27
2018-06-28T00:47:44.217Z,3.97
2018-06-28T00:50:13.625Z,4.13
2018-06-28T00:52:42.786Z,5.03
2018-06-28T00:55:12.020Z,3.90
2018-06-28T00:57:40.693Z,4.17
2018-06-28T01:00:10.314Z,3.80
2018-06-28T01:02:39.169Z,3.90
2018-06-28T01:05:08.294Z,3.27
2018-06-28T01:07:37.169Z,3.90
2018-06-28T01:10:05.982Z,3.70
2018-06-28T01:12:35.128Z,4.00
2018-06-28T01:15:04.787Z,4.50
2018-06-28T01:17:34.827Z,4.20
2018-06-28T01:20:04.610Z,4.27
2018-06-28T01:22:33.787Z,3.97
2018-06-28T01:25:02.693Z,4.23
2018-06-28T01:27:31.848Z,4.40
2018-06-28T01:30:02.134Z,4.00
2018-06-28T01:32:31.075Z,4.67
2018-06-28T01:35:00.229Z,4.00
2018-06-28T01:37:28.882Z,4.07
2018-06-28T01:39:57.400Z,4.00
2018-06-28T01:43:34.488Z,3.67
2018-06-28T01:46:04.585Z,3.43
2018-06-28T01:48:33.026Z,4.00
2018-06-28T01:51:02.092Z,3.93
2018-06-28T01:53:31.579Z,4.03
2018-06-28T01:56:00.270Z,4.43
2018-06-28T01:58:30.504Z,4.30
2018-06-28T02:01:00.252Z,4.47
2018-06-28T02:03:29.085Z,4.30
2018-06-28T02:05:57.287Z,4.70
2018-06-28T02:08:26.673Z,4.50
2018-06-28T02:10:54.849Z,4.53
2018-06-28T02:13:24.392Z,3.93
2018-06-28T02:15:53.382Z,5.50
2018-06-28T02:18:24.771Z,5.13
2018-06-28T02:20:53.302Z,4.37
2018-06-28T02:23:22.457Z,4.97
2018-06-28T02:25:52.315Z,4.90
2018-06-28T02:28:22.767Z,4.37
2018-06-28T02:30:52.096Z,4.40
2018-06-28T02:33:21.060Z,5.83
2018-06-28T02:35:50.296Z,4.30
2018-06-28T02:38:19.152Z,4.60
2018-06-28T02:40:48.306Z,5.00
2018-06-28T02:43:17.624Z,4.77
2018-06-28T02:45:47.136Z,4.40
2018-06-28T02:48:17.563Z,4.70
2018-06-28T02:50:47.420Z,4.53
2018-06-28T02:53:16.500Z,4.83
2018-06-28T02:55:45.535Z,4.67
2018-06-28T02:58:15.636Z,4.80
2018-06-28T03:00:44.405Z,5.27
2018-06-28T03:03:13.328Z,4.60
2018-06-28T03:05:41.740Z,5.40
2018-06-28T03:08:12.524Z,5.00
2018-06-28T03:10:40.964Z,5.30
2018-06-28T03:13:10.468Z,5.17
2018-06-28T03:15:39.941Z,5.27
2018-06-28T03:18:11.708Z,5.67
2018-06-28T03:30:21.128Z,4.90
2018-06-28T03:32:49.373Z,5.37
2018-06-28T03:35:19.587Z,5.40
2018-06-28T03:37:48.690Z,5.70
2018-06-28T03:40:18.032Z,6.17
2018-06-28T03:42:47.886Z,5.53
2018-06-28T03:45:16.034Z,5.10
2018-06-28T03:47:44.370Z,4.90
2018-06-28T03:50:13.077Z,4.27
2018-06-28T03:52:43.593Z,5.10
2018-06-28T03:55:12.932Z,4.27
2018-06-28T03:57:42.939Z,4.13
2018-06-28T04:00:11.229Z,4.47
2018-06-28T04:02:41.612Z,4.70
2018-06-28T04:05:11.440Z,5.30
2018-06-28T04:07:42.016Z,5.10
2018-06-28T04:10:11.972Z,4.70
2018-06-28T04:12:40.383Z,5.43
2018-06-28T04:15:10.375Z,5.93
2018-06-28T04:17:39.495Z,5.40
2018-06-28T04:20:10.239Z,5.93
2018-06-28T04:22:42.764Z,6.50
2018-06-28T04:25:12.041Z,6.27
2018-06-28T04:27:40.994Z,5.60
2018-06-28T04:30:10.653Z,6.60
2018-06-28T04:32:38.900Z,5.40
2018-06-28T04:35:07.701Z,5.97
2018-06-28T04:37:37.630Z,5.80
2018-06-28T04:40:08.038Z,5.53
2018-06-28T04:42:36.174Z,5.93
2018-06-28T04:45:06.005Z,5.27
2018-06-28T04:47:36.645Z,5.33
2018-06-28T04:50:08.380Z,5.97
2018-06-28T04:52:37.094Z,5.93
2018-06-28T04:55:06.673Z,5.60
2018-06-28T04:57:34.662Z,5.30
2018-06-28T05:00:05.048Z,5.17
2018-06-28T05:02:35.889Z,6.37
2018-06-28T05:05:06.048Z,5.70
2018-06-28T05:07:34.984Z,5.70
2018-06-28T05:10:06.853Z,4.97
2018-06-28T05:12:36.297Z,5.10
2018-06-28T05:15:08.816Z,4.70
2018-06-28T05:17:37.628Z,5.67
2018-06-28T05:20:08.631Z,5.67
2018-06-28T05:22:39.112Z,6.20
2018-06-28T05:25:09.958Z,5.90
2018-06-28T05:27:40.703Z,5.50
2018-06-28T05:30:11.610Z,5.40
2018-06-28T05:32:42.087Z,5.47
2018-06-28T05:35:10.428Z,4.80
2018-06-28T05:37:40.764Z,6.80
2018-06-28T05:40:12.878Z,6.40
2018-06-28T05:42:43.072Z,5.90
2018-06-28T05:45:13.677Z,4.97
2018-06-28T05:47:43.479Z,4.70
2018-06-28T05:50:15.195Z,5.37
2018-06-28T05:52:45.145Z,5.10
2018-06-28T05:55:15.560Z,4.63
2018-06-28T05:57:46.539Z,3.93
2018-06-28T06:00:17.689Z,3.97
2018-06-28T06:02:49.953Z,4.07
2018-06-28T06:05:20.137Z,3.87
2018-06-28T06:07:50.995Z,4.50
2018-06-28T06:10:23.385Z,4.23
2018-06-28T06:12:53.193Z,3.83
2018-06-28T06:15:25.513Z,4.53
2018-06-28T06:17:56.111Z,3.33
2018-06-28T06:20:28.766Z,3.53
2018-06-28T06:23:00.008Z,3.63
2018-06-28T06:25:31.013Z,4.20
2018-06-28T06:28:02.320Z,3.20
2018-06-28T06:30:31.156Z,3.00
2018-06-28T06:33:03.488Z,3.83
2018-06-28T06:35:34.975Z,4.13
2018-06-28T06:38:07.840Z,3.77
2018-06-28T06:40:39.002Z,3.50
2018-06-28T06:43:08.528Z,3.70
2018-06-28T06:45:41.015Z,3.30
2018-06-28T06:48:14.638Z,3.63
2018-06-28T06:50:47.601Z,4.23
2018-06-28T06:53:18.994Z,3.87
2018-06-28T06:55:50.017Z,3.97
2018-06-28T06:58:22.104Z,3.17
2018-06-28T07:00:51.864Z,4.30
2018-06-28T07:03:22.814Z,3.00
2018-06-28T07:05:52.839Z,3.23
2018-06-28T07:08:24.874Z,3.03
2018-06-28T07:23:51.545Z,2.37
2018-06-28T07:26:24.145Z,2.50
2018-06-28T07:28:54.037Z,2.70
2018-06-28T07:31:24.984Z,2.73
2018-06-28T07:33:56.568Z,2.93
2018-06-28T07:36:31.275Z,2.40
2018-06-28T07:51:57.284Z,3.03
2018-06-28T07:54:30.012Z,2.50
2018-06-28T07:57:01.296Z,2.67
2018-06-28T08:14:41.650Z,2.87
2018-06-28T08:17:14.949Z,2.90
2018-06-28T08:19:46.417Z,3.13
2018-06-28T08:22:17.728Z,2.80
2018-06-28T08:24:51.411Z,2.73
2018-06-28T08:27:23.017Z,2.30
2018-06-28T08:29:53.724Z,2.40
2018-06-28T08:32:26.429Z,2.70
2018-06-28T08:51:12.185Z,2.40
2018-06-28T08:53:43.665Z,2.33
2018-06-28T08:56:14.793Z,2.20
2018-06-28T08:58:48.137Z,2.90
2018-06-28T09:01:21.306Z,2.57
2018-06-28T09:03:54.396Z,2.77
2018-06-28T09:06:26.727Z,2.57
2018-06-28T09:08:59.862Z,2.50
2018-06-28T09:11:31.614Z,2.30
2018-06-28T09:14:02.909Z,2.10
2018-06-28T09:16:35.240Z,2.23
2018-06-28T09:19:07.540Z,2.30
2018-06-28T09:21:42.444Z,2.40
2018-06-28T09:24:13.880Z,2.60
2018-06-28T09:26:47.373Z,2.50
2018-06-28T09:29:20.974Z,2.63
2018-06-28T09:31:53.203Z,2.70
2018-06-28T09:34:27.373Z,2.53
2018-06-28T09:36:57.243Z,2.67
2018-06-28T09:39:28.439Z,2.23
2018-06-28T09:41:59.108Z,2.33
2018-06-28T09:44:32.924Z,1.70
2018-06-28T09:47:06.100Z,2.40
2018-06-28T09:49:37.948Z,1.90
2018-06-28T09:52:09.145Z,3.13
2018-06-28T09:54:42.276Z,3.40
2018-06-28T09:57:14.310Z,3.20
2018-06-28T09:59:48.147Z,2.33
2018-06-28T10:02:20.258Z,2.20
2018-06-28T10:14:31.107Z,1.90
2018-06-28T10:17:04.072Z,2.50
2018-06-28T10:19:37.854Z,2.20
2018-06-28T10:28:02.583Z,2.20
2018-06-28T10:30:35.350Z,2.20
2018-06-28T10:33:10.290Z,1.80
2018-06-28T10:35:45.713Z,2.27
2018-06-28T10:38:18.755Z,2.53
2018-06-28T10:40:51.293Z,2.53
2018-06-28T10:43:24.229Z,2.20
2018-06-28T10:45:56.373Z,2.10
2018-06-28T10:48:29.415Z,1.50
2018-06-28T10:51:01.704Z,1.60
2018-06-28T10:53:32.619Z,1.83
2018-06-28T10:56:04.961Z,1.80
2018-06-28T10:58:37.764Z,2.00
2018-06-28T11:01:09.320Z,1.50
2018-06-28T11:03:43.956Z,1.40
2018-06-28T11:06:16.987Z,1.50
2018-06-28T11:08:49.489Z,1.80
2018-06-28T11:11:20.543Z,2.10
2018-06-28T11:23:32.065Z,2.00
2018-06-28T11:26:05.682Z,1.63
2018-06-28T11:28:38.196Z,1.40
2018-06-28T11:31:10.013Z,1.77
2018-06-28T11:33:42.634Z,2.17
2018-06-28T11:36:14.190Z,1.90
2018-06-28T11:53:28.402Z,2.20
2018-06-28T11:55:59.714Z,1.47
2018-06-28T11:58:32.467Z,1.40
2018-06-28T12:01:06.443Z,1.20
2018-06-28T12:03:38.110Z,0.90
2018-06-28T12:06:11.426Z,1.43
2018-06-28T12:08:45.878Z,1.33
2018-06-28T12:11:17.945Z,1.10
2018-06-28T12:13:48.168Z,1.07
2018-06-28T12:16:21.023Z,1.37
2018-06-28T12:18:54.037Z,1.50
2018-06-28T12:21:25.662Z,1.37
2018-06-28T12:23:56.792Z,1.13
2018-06-28T12:26:30.730Z,1.53
2018-06-28T12:29:05.055Z,1.50
2018-06-28T12:31:37.764Z,1.10
2018-06-28T12:34:11.730Z,1.40
2018-06-28T12:36:43.995Z,0.97
2018-06-28T12:39:13.262Z,3.57
2018-06-28T12:41:43.592Z,2.40
2018-06-28T12:44:14.163Z,1.77
2018-06-28T12:47:50.224Z,1.10
2018-06-28T12:50:24.360Z,0.90
2018-06-28T12:55:40.809Z,1.20
2018-06-28T12:58:13.623Z,1.40
2018-06-28T13:00:44.367Z,1.20
2018-06-28T13:03:15.344Z,1.00
2018-06-28T13:15:27.309Z,1.10
2018-06-28T13:18:00.090Z,2.57
2018-06-28T13:20:33.828Z,1.60
2018-06-28T13:23:07.075Z,1.20
2018-06-28T13:25:39.232Z,1.27
2018-06-28T13:28:11.203Z,1.00
2018-06-28T13:30:43.995Z,0.97
2018-06-28T13:33:15.421Z,1.00
2018-06-28T13:35:47.347Z,1.30
2018-06-28T13:38:19.207Z,1.03
2018-06-28T13:40:51.124Z,1.20
2018-06-28T13:43:22.217Z,0.90
2018-06-28T13:55:34.407Z,0.80
2018-06-28T13:58:05.611Z,1.10
2018-06-28T14:00:39.087Z,1.40
2018-06-28T14:03:10.338Z,1.10
2018-06-28T14:05:42.142Z,0.90
2018-06-28T14:08:15.005Z,1.37
2018-06-28T14:10:46.652Z,2.30
2018-06-28T14:13:18.758Z,2.10
2018-06-28T14:15:51.505Z,1.57
2018-06-28T14:34:34.456Z,1.00
2018-06-28T14:37:06.892Z,1.20
2018-06-28T14:39:40.525Z,1.13
2018-06-28T14:42:16.468Z,1.13
2018-06-28T14:44:48.804Z,1.60
2018-06-28T14:47:23.336Z,1.00
2018-06-28T14:49:54.652Z,1.10
2018-06-28T14:52:25.875Z,1.50
2018-06-28T14:54:57.242Z,1.20
2018-06-28T14:57:33.481Z,0.60
2018-06-28T15:00:05.070Z,0.90
2018-06-28T15:02:37.531Z,0.87
2018-06-28T15:05:12.548Z,0.80
2018-06-28T15:07:45.001Z,1.13
2018-06-28T15:10:18.493Z,1.03
2018-06-28T15:12:49.381Z,1.03
2018-06-28T15:15:20.324Z,1.00
2018-06-28T15:17:51.934Z,0.90
2018-06-28T15:20:24.833Z,1.00
2018-06-28T15:22:57.898Z,0.90
2018-06-28T15:25:30.296Z,0.90
2018-06-28T15:28:01.990Z,0.80
2018-06-28T15:30:35.730Z,1.10
2018-06-28T15:33:08.373Z,1.00
2018-06-28T15:35:42.216Z,0.90
2018-06-28T15:38:14.758Z,0.80
2018-06-28T15:40:46.170Z,0.90
2018-06-28T15:43:18.736Z,0.67
2018-06-28T15:45:49.695Z,0.80
2018-06-28T15:48:23.929Z,0.90
2018-06-28T15:50:57.526Z,1.37
2018-06-28T16:19:24.517Z,1.00
2018-06-28T16:38:08.556Z,1.63
2018-06-28T16:40:42.379Z,1.60
2018-06-28T16:43:14.130Z,1.43
2018-06-28T16:45:45.168Z,1.27
2018-06-28T16:57:05.970Z,1.40
2018-06-28T16:59:39.247Z,1.20
2018-06-28T17:02:10.295Z,1.03
2018-06-28T17:04:41.237Z,1.73
2018-06-28T17:07:11.989Z,1.53
2018-06-28T17:09:46.818Z,1.37
2018-06-28T17:12:17.980Z,1.60
2018-06-28T17:14:48.300Z,1.70
2018-06-28T17:17:19.401Z,1.63
2018-06-28T17:19:50.747Z,3.50
2018-06-28T17:22:22.129Z,2.97
2018-06-28T17:24:53.944Z,1.90
2018-06-28T17:27:25.021Z,2.70
2018-06-28T17:29:54.985Z,3.30
2018-06-28T17:32:25.708Z,3.23
2018-06-28T17:34:56.092Z,4.60
2018-06-28T17:37:25.752Z,5.33
2018-06-28T17:39:56.348Z,4.67
2018-06-28T17:42:27.088Z,5.50
2018-06-28T17:44:58.206Z,3.20
2018-06-28T17:47:29.112Z,4.57
2018-06-28T17:49:59.097Z,4.43
2018-06-28T17:52:30.116Z,3.77
2018-06-28T17:55:01.357Z,6.17
2018-06-28T17:57:31.745Z,5.33
2018-06-28T18:00:01.647Z,6.07
2018-06-28T18:02:31.825Z,4.20
2018-06-28T18:05:02.223Z,2.03
2018-06-28T18:07:31.665Z,2.80
2018-06-28T18:10:01.847Z,6.73
2018-06-28T18:12:31.848Z,3.60
2018-06-28T18:15:02.230Z,2.33
2018-06-28T18:17:32.801Z,3.07
2018-06-28T18:20:03.810Z,1.67
2018-06-28T18:22:36.166Z,2.87
2018-06-28T18:25:06.786Z,1.77
2018-06-28T18:27:36.085Z,2.30
2018-06-28T18:30:07.123Z,2.87
2018-06-28T18:32:38.170Z,1.50
2018-06-28T18:35:08.283Z,7.03
2018-06-28T18:37:38.277Z,6.90
2018-06-28T18:40:08.487Z,7.63
2018-06-28T18:42:40.808Z,5.37
2018-06-28T18:45:11.382Z,6.00
2018-06-28T18:47:41.187Z,10.00
2018-06-28T18:50:11.740Z,4.40
2018-06-28T18:52:42.592Z,4.57
2018-06-28T18:55:13.506Z,5.20
2018-06-28T18:57:43.739Z,2.60
2018-06-28T19:00:13.550Z,1.90
2018-06-28T19:02:44.048Z,3.07
2018-06-28T19:05:14.143Z,10.13
2018-06-28T19:07:43.765Z,16.60
2018-06-28T19:10:19.000Z,5.47
2018-06-28T19:12:48.400Z,6.90
2018-06-28T19:15:22.779Z,2.77
2018-06-28T19:17:52.516Z,2.47
2018-06-28T19:20:22.635Z,6.40
2018-06-28T19:22:58.200Z,3.43
2018-06-28T19:25:29.442Z,2.20
2018-06-28T19:27:59.549Z,2.50
2018-06-28T19:30:34.891Z,3.60
2018-06-28T19:33:05.225Z,2.23
2018-06-28T19:35:34.937Z,1.80
2018-06-28T19:38:05.692Z,2.27
2018-06-28T19:40:40.800Z,5.20
2018-06-28T19:43:10.208Z,3.80
2018-06-28T19:45:39.217Z,2.50
2018-06-28T19:48:09.581Z,1.90
2018-06-28T19:50:43.297Z,4.30
2018-06-28T19:53:15.119Z,2.60
2018-06-28T19:55:45.315Z,2.27
2018-06-28T19:58:17.092Z,4.00
2018-06-28T20:00:52.370Z,2.30
2018-06-28T20:03:25.935Z,2.60
2018-06-28T20:05:54.119Z,2.60
2018-06-28T20:08:23.536Z,2.20
2018-06-28T20:10:51.689Z,2.47
2018-06-28T20:13:25.800Z,2.73
2018-06-28T20:16:01.459Z,2.97
2018-06-28T20:18:37.361Z,2.90
2018-06-28T20:21:06.302Z,4.13
2018-06-28T20:23:35.696Z,7.53
2018-06-28T20:28:12.457Z,5.70
2018-06-28T20:30:47.390Z,5.93
2018-06-28T20:33:23.619Z,7.30
2018-06-28T20:35:54.336Z,7.00
2018-06-28T20:38:25.252Z,4.30
2018-06-28T20:41:00.693Z,5.20
2018-06-28T20:43:30.654Z,6.13
2018-06-28T20:46:00.739Z,4.20
2018-06-28T20:48:30.300Z,6.30
2018-06-28T20:50:59.291Z,8.00
2018-06-28T20:53:27.237Z,3.50
2018-06-28T20:55:57.117Z,2.33
2018-06-28T20:58:27.205Z,7.23
2018-06-28T21:00:59.345Z,2.60
2018-06-28T21:03:28.697Z,1.80
2018-06-28T21:05:58.670Z,1.70
2018-06-28T21:08:29.398Z,1.40
2018-06-28T21:11:00.195Z,1.20
2018-06-28T21:13:29.443Z,1.23
2018-06-28T21:16:02.507Z,1.57
2018-06-28T21:18:32.036Z,2.03
2018-06-28T21:21:01.218Z,1.60
2018-06-28T21:23:31.094Z,3.00
2018-06-28T21:25:59.345Z,3.70
2018-06-28T21:28:28.750Z,2.60
2018-06-28T21:30:57.308Z,2.10
2018-06-28T21:33:26.150Z,2.10
2018-06-28T21:35:55.102Z,1.40
2018-06-28T21:38:24.012Z,1.67
2018-06-28T21:40:54.635Z,6.00
2018-06-28T21:43:24.453Z,10.60
2018-06-28T21:45:55.382Z,4.70
2018-06-28T21:48:28.833Z,2.37
2018-06-28T21:51:03.739Z,1.67
2018-06-28T21:53:37.037Z,1.80
2018-06-28T21:56:11.888Z,1.40
2018-06-28T21:58:44.942Z,1.90
2018-06-28T22:01:16.425Z,1.40
2018-06-28T22:03:44.499Z,1.80
2018-06-28T22:06:15.631Z,1.70
2018-06-28T22:08:45.961Z,1.40
2018-06-28T22:11:15.892Z,1.17
2018-06-28T22:13:48.348Z,2.20
2018-06-28T22:16:18.797Z,1.47
2018-06-28T22:18:48.469Z,1.70
2018-06-28T22:21:18.255Z,1.50
2018-06-28T22:23:51.843Z,1.80
2018-06-28T22:26:25.831Z,1.43
2018-06-28T22:29:01.991Z,1.27
2018-06-28T22:31:35.630Z,1.87
2018-06-28T22:34:04.948Z,1.40
2018-06-28T22:36:36.195Z,1.53
2018-06-28T22:39:07.924Z,1.63
2018-06-28T22:41:38.187Z,1.60
2018-06-28T22:44:11.594Z,2.17
2018-06-28T22:46:41.718Z,2.30
2018-06-28T22:49:12.836Z,4.20
2018-06-28T22:51:45.341Z,3.27
2018-06-28T22:54:14.320Z,3.30
2018-06-28T23:09:37.647Z,1.40
2018-06-28T23:12:11.936Z,2.90
2018-06-28T23:14:40.982Z,2.33
2018-06-28T23:17:09.748Z,1.93
2018-06-28T23:19:38.962Z,3.63
2018-06-28T23:22:09.284Z,2.00
2018-06-28T23:24:39.624Z,2.07
2018-06-28T23:27:09.205Z,1.73
2018-06-28T23:29:38.701Z,2.27
2018-06-28T23:32:09.490Z,3.20
2018-06-28T23:34:37.746Z,2.53
2018-06-28T23:37:07.304Z,2.47
2018-06-28T23:39:37.746Z,2.47
2018-06-28T23:42:08.480Z,2.83
2018-06-28T23:44:37.455Z,2.30
2018-06-28T23:47:10.259Z,2.00
2018-06-28T23:49:38.513Z,2.70
2018-06-28T23:52:08.453Z,2.47
2018-06-28T23:54:36.625Z,1.97
2018-06-28T23:57:04.974Z,2.83
2018-06-28T23:59:33.303Z,2.90
